sensor_id;sensor_type;location;lat;lon;timestamp;P1;durP1;ratioP1;P2;durP2;ratioP2
7813;SDS011;3952;48.364;16.022;2022-11-09T00:01:23;49.80;;;22.97;;
7813;SDS011;3952;48.364;16.022;2022-11-09T00:03:54;50.63;;;23.50;;
7813;SDS011;3952;48.364;16.022;2022-11-09T00:06:22;52.20;;;23.13;;
7813;SDS011;3952;48.364;16.022;2022-11-09T00:08:50;48.43;;;22.90;;
7813;SDS011;3952;48.364;16.022;2022-11-09T00:11:18;43.17;;;21.90;;
7813;SDS011;3952;48.364;16.022;2022-11-09T00:13:46;44.87;;;22.10;;
7813;SDS011;3952;48.364;16.022;2022-11-09T00:16:15;48.67;;;23.60;;
7813;SDS011;3952;48.364;16.022;2022-11-09T00:18:44;43.90;;;22.67;;
7813;SDS011;3952;48.364;16.022;2022-11-09T00:21:13;42.53;;;22.87;;
7813;SDS011;3952;48.364;16.022;2022-11-09T00:23:42;50.33;;;23.57;;
7813;SDS011;3952;48.364;16.022;2022-11-09T00:26:10;50.90;;;24.17;;
7813;SDS011;3952;48.364;16.022;2022-11-09T00:28:39;42.47;;;22.40;;
7813;SDS011;3952;48.364;16.022;2022-11-09T00:31:09;49.07;;;23.50;;
7813;SDS011;3952;48.364;16.022;2022-11-09T00:33:38;46.27;;;23.47;;
7813;SDS011;3952;48.364;16.022;2022-11-09T00:36:06;51.57;;;24.30;;
7813;SDS011;3952;48.364;16.022;2022-11-09T00:38:37;42.27;;;22.03;;
7813;SDS011;3952;48.364;16.022;2022-11-09T00:41:07;49.13;;;24.57;;
7813;SDS011;3952;48.364;16.022;2022-11-09T00:43:37;43.60;;;22.93;;
7813;SDS011;3952;48.364;16.022;2022-11-09T00:46:05;42.77;;;22.77;;
7813;SDS011;3952;48.364;16.022;2022-11-09T00:48:32;49.70;;;23.40;;
7813;SDS011;3952;48.364;16.022;2022-11-09T00:51:00;45.37;;;23.67;;
7813;SDS011;3952;48.364;16.022;2022-11-09T00:53:27;43.40;;;22.77;;
7813;SDS011;3952;48.364;16.022;2022-11-09T00:55:57;50.27;;;23.77;;
7813;SDS011;3952;48.364;16.022;2022-11-09T00:58:26;47.30;;;23.73;;
7813;SDS011;3952;48.364;16.022;2022-11-09T01:00:54;45.53;;;23.90;;
7813;SDS011;3952;48.364;16.022;2022-11-09T01:03:23;45.97;;;22.97;;
7813;SDS011;3952;48.364;16.022;2022-11-09T01:05:51;47.47;;;23.70;;
7813;SDS011;3952;48.364;16.022;2022-11-09T01:08:18;46.47;;;23.93;;
7813;SDS011;3952;48.364;16.022;2022-11-09T01:10:46;49.57;;;23.53;;
7813;SDS011;3952;48.364;16.022;2022-11-09T01:13:15;48.53;;;24.83;;
7813;SDS011;3952;48.364;16.022;2022-11-09T01:15:45;48.77;;;23.57;;
7813;SDS011;3952;48.364;16.022;2022-11-09T01:18:14;49.13;;;23.27;;
7813;SDS011;3952;48.364;16.022;2022-11-09T01:20:43;44.70;;;24.47;;
7813;SDS011;3952;48.364;16.022;2022-11-09T01:23:12;46.83;;;22.73;;
7813;SDS011;3952;48.364;16.022;2022-11-09T01:25:41;44.67;;;23.10;;
7813;SDS011;3952;48.364;16.022;2022-11-09T01:28:08;45.77;;;23.90;;
7813;SDS011;3952;48.364;16.022;2022-11-09T01:30:40;44.33;;;21.87;;
7813;SDS011;3952;48.364;16.022;2022-11-09T01:33:09;42.27;;;22.00;;
7813;SDS011;3952;48.364;16.022;2022-11-09T01:35:37;45.10;;;22.07;;
7813;SDS011;3952;48.364;16.022;2022-11-09T01:38:06;40.57;;;22.17;;
7813;SDS011;3952;48.364;16.022;2022-11-09T01:40:35;48.73;;;23.00;;
7813;SDS011;3952;48.364;16.022;2022-11-09T01:43:13;37.77;;;21.23;;
7813;SDS011;3952;48.364;16.022;2022-11-09T01:45:43;36.60;;;21.17;;
7813;SDS011;3952;48.364;16.022;2022-11-09T01:48:14;45.17;;;21.73;;
7813;SDS011;3952;48.364;16.022;2022-11-09T01:50:46;38.27;;;20.90;;
7813;SDS011;3952;48.364;16.022;2022-11-09T01:53:18;35.33;;;20.57;;
7813;SDS011;3952;48.364;16.022;2022-11-09T01:55:50;42.73;;;20.90;;
7813;SDS011;3952;48.364;16.022;2022-11-09T01:58:21;36.73;;;20.20;;
7813;SDS011;3952;48.364;16.022;2022-11-09T02:00:52;36.40;;;21.00;;
7813;SDS011;3952;48.364;16.022;2022-11-09T02:03:24;41.37;;;21.57;;
7813;SDS011;3952;48.364;16.022;2022-11-09T02:05:55;39.43;;;21.07;;
7813;SDS011;3952;48.364;16.022;2022-11-09T02:08:24;40.83;;;21.37;;
7813;SDS011;3952;48.364;16.022;2022-11-09T02:10:54;37.47;;;20.30;;
7813;SDS011;3952;48.364;16.022;2022-11-09T02:13:28;38.00;;;20.37;;
7813;SDS011;3952;48.364;16.022;2022-11-09T02:15:58;37.23;;;19.53;;
7813;SDS011;3952;48.364;16.022;2022-11-09T02:18:26;36.17;;;19.77;;
7813;SDS011;3952;48.364;16.022;2022-11-09T02:20:56;36.80;;;19.37;;
7813;SDS011;3952;48.364;16.022;2022-11-09T02:23:24;35.63;;;19.33;;
7813;SDS011;3952;48.364;16.022;2022-11-09T02:25:53;36.40;;;18.97;;
7813;SDS011;3952;48.364;16.022;2022-11-09T02:28:24;32.30;;;17.93;;
7813;SDS011;3952;48.364;16.022;2022-11-09T02:30:53;31.80;;;18.17;;
7813;SDS011;3952;48.364;16.022;2022-11-09T02:33:22;31.80;;;18.70;;
7813;SDS011;3952;48.364;16.022;2022-11-09T02:35:49;34.43;;;18.83;;
7813;SDS011;3952;48.364;16.022;2022-11-09T02:38:18;30.93;;;18.27;;
7813;SDS011;3952;48.364;16.022;2022-11-09T02:40:47;33.70;;;19.37;;
7813;SDS011;3952;48.364;16.022;2022-11-09T02:43:16;30.83;;;17.80;;
7813;SDS011;3952;48.364;16.022;2022-11-09T02:45:44;27.77;;;18.47;;
7813;SDS011;3952;48.364;16.022;2022-11-09T02:48:11;32.53;;;19.20;;
7813;SDS011;3952;48.364;16.022;2022-11-09T02:50:39;35.40;;;18.40;;
7813;SDS011;3952;48.364;16.022;2022-11-09T02:53:06;36.13;;;19.00;;
7813;SDS011;3952;48.364;16.022;2022-11-09T02:55:34;32.80;;;19.43;;
7813;SDS011;3952;48.364;16.022;2022-11-09T02:58:01;35.97;;;19.00;;
7813;SDS011;3952;48.364;16.022;2022-11-09T03:00:29;32.23;;;19.30;;
7813;SDS011;3952;48.364;16.022;2022-11-09T03:02:56;31.37;;;18.47;;
7813;SDS011;3952;48.364;16.022;2022-11-09T03:05:23;30.00;;;17.20;;
7813;SDS011;3952;48.364;16.022;2022-11-09T03:07:50;30.23;;;17.30;;
7813;SDS011;3952;48.364;16.022;2022-11-09T03:10:17;30.27;;;18.10;;
7813;SDS011;3952;48.364;16.022;2022-11-09T03:12:46;25.03;;;17.07;;
7813;SDS011;3952;48.364;16.022;2022-11-09T03:15:13;30.57;;;16.87;;
7813;SDS011;3952;48.364;16.022;2022-11-09T03:17:41;31.20;;;17.50;;
7813;SDS011;3952;48.364;16.022;2022-11-09T03:20:09;35.23;;;19.23;;
7813;SDS011;3952;48.364;16.022;2022-11-09T03:22:37;32.23;;;19.73;;
7813;SDS011;3952;48.364;16.022;2022-11-09T03:25:05;36.00;;;19.63;;
7813;SDS011;3952;48.364;16.022;2022-11-09T03:27:33;37.63;;;19.77;;
7813;SDS011;3952;48.364;16.022;2022-11-09T03:30:02;38.93;;;21.20;;
7813;SDS011;3952;48.364;16.022;2022-11-09T03:32:29;40.40;;;21.37;;
7813;SDS011;3952;48.364;16.022;2022-11-09T03:34:56;37.33;;;20.90;;
7813;SDS011;3952;48.364;16.022;2022-11-09T03:37:24;42.23;;;22.20;;
7813;SDS011;3952;48.364;16.022;2022-11-09T03:39:51;37.77;;;20.37;;
7813;SDS011;3952;48.364;16.022;2022-11-09T03:42:18;35.77;;;20.83;;
7813;SDS011;3952;48.364;16.022;2022-11-09T03:44:45;33.07;;;19.53;;
7813;SDS011;3952;48.364;16.022;2022-11-09T03:47:14;31.27;;;17.63;;
7813;SDS011;3952;48.364;16.022;2022-11-09T03:49:41;32.33;;;17.37;;
7813;SDS011;3952;48.364;16.022;2022-11-09T03:52:08;29.40;;;17.53;;
7813;SDS011;3952;48.364;16.022;2022-11-09T03:54:35;29.23;;;17.43;;
7813;SDS011;3952;48.364;16.022;2022-11-09T03:57:02;27.67;;;16.67;;
7813;SDS011;3952;48.364;16.022;2022-11-09T03:59:30;25.97;;;15.70;;
7813;SDS011;3952;48.364;16.022;2022-11-09T04:01:58;29.53;;;17.03;;
7813;SDS011;3952;48.364;16.022;2022-11-09T04:04:26;26.10;;;15.53;;
7813;SDS011;3952;48.364;16.022;2022-11-09T04:06:53;22.70;;;16.40;;
7813;SDS011;3952;48.364;16.022;2022-11-09T04:09:20;25.80;;;16.00;;
7813;SDS011;3952;48.364;16.022;2022-11-09T04:11:48;26.10;;;16.27;;
7813;SDS011;3952;48.364;16.022;2022-11-09T04:14:15;24.03;;;15.60;;
7813;SDS011;3952;48.364;16.022;2022-11-09T04:16:42;26.17;;;16.47;;
7813;SDS011;3952;48.364;16.022;2022-11-09T04:19:09;28.33;;;16.60;;
7813;SDS011;3952;48.364;16.022;2022-11-09T04:21:37;27.90;;;16.37;;
7813;SDS011;3952;48.364;16.022;2022-11-09T04:24:05;23.40;;;15.40;;
7813;SDS011;3952;48.364;16.022;2022-11-09T04:26:32;23.43;;;15.43;;
7813;SDS011;3952;48.364;16.022;2022-11-09T04:28:59;22.70;;;15.53;;
7813;SDS011;3952;48.364;16.022;2022-11-09T04:31:26;24.93;;;15.70;;
7813;SDS011;3952;48.364;16.022;2022-11-09T04:33:53;22.30;;;15.00;;
7813;SDS011;3952;48.364;16.022;2022-11-09T04:36:21;26.07;;;15.77;;
7813;SDS011;3952;48.364;16.022;2022-11-09T04:38:49;28.20;;;15.47;;
7813;SDS011;3952;48.364;16.022;2022-11-09T04:41:16;25.30;;;16.17;;
7813;SDS011;3952;48.364;16.022;2022-11-09T04:43:43;30.80;;;16.83;;
7813;SDS011;3952;48.364;16.022;2022-11-09T04:46:11;27.03;;;15.63;;
7813;SDS011;3952;48.364;16.022;2022-11-09T04:48:38;28.40;;;15.83;;
7813;SDS011;3952;48.364;16.022;2022-11-09T04:51:05;27.93;;;16.37;;
7813;SDS011;3952;48.364;16.022;2022-11-09T04:53:34;29.73;;;16.40;;
7813;SDS011;3952;48.364;16.022;2022-11-09T04:56:04;32.97;;;17.47;;
7813;SDS011;3952;48.364;16.022;2022-11-09T04:58:32;32.20;;;16.73;;
7813;SDS011;3952;48.364;16.022;2022-11-09T05:01:02;32.17;;;17.57;;
7813;SDS011;3952;48.364;16.022;2022-11-09T05:03:30;32.17;;;15.93;;
7813;SDS011;3952;48.364;16.022;2022-11-09T05:05:57;31.40;;;16.93;;
7813;SDS011;3952;48.364;16.022;2022-11-09T05:08:25;29.33;;;15.87;;
7813;SDS011;3952;48.364;16.022;2022-11-09T05:10:54;31.83;;;16.87;;
7813;SDS011;3952;48.364;16.022;2022-11-09T05:13:24;29.73;;;15.93;;
7813;SDS011;3952;48.364;16.022;2022-11-09T05:15:51;27.03;;;15.40;;
7813;SDS011;3952;48.364;16.022;2022-11-09T05:18:18;25.60;;;15.53;;
7813;SDS011;3952;48.364;16.022;2022-11-09T05:20:45;28.70;;;16.17;;
7813;SDS011;3952;48.364;16.022;2022-11-09T05:23:12;27.67;;;15.87;;
7813;SDS011;3952;48.364;16.022;2022-11-09T05:26:09;28.27;;;16.23;;
7813;SDS011;3952;48.364;16.022;2022-11-09T05:28:37;29.97;;;15.63;;
7813;SDS011;3952;48.364;16.022;2022-11-09T05:31:05;31.67;;;16.13;;
7813;SDS011;3952;48.364;16.022;2022-11-09T05:33:32;31.60;;;16.97;;
7813;SDS011;3952;48.364;16.022;2022-11-09T05:35:59;28.37;;;15.00;;
7813;SDS011;3952;48.364;16.022;2022-11-09T05:38:27;30.23;;;14.63;;
7813;SDS011;3952;48.364;16.022;2022-11-09T05:40:54;31.23;;;15.63;;
7813;SDS011;3952;48.364;16.022;2022-11-09T05:43:21;23.90;;;14.40;;
7813;SDS011;3952;48.364;16.022;2022-11-09T05:45:50;28.70;;;14.97;;
7813;SDS011;3952;48.364;16.022;2022-11-09T05:48:17;22.93;;;14.50;;
7813;SDS011;3952;48.364;16.022;2022-11-09T05:50:44;27.60;;;15.93;;
7813;SDS011;3952;48.364;16.022;2022-11-09T05:53:11;25.10;;;15.33;;
7813;SDS011;3952;48.364;16.022;2022-11-09T05:55:39;25.57;;;14.77;;
7813;SDS011;3952;48.364;16.022;2022-11-09T05:58:06;25.27;;;14.20;;
7813;SDS011;3952;48.364;16.022;2022-11-09T06:00:34;31.87;;;16.20;;
7813;SDS011;3952;48.364;16.022;2022-11-09T06:03:03;23.87;;;15.13;;
7813;SDS011;3952;48.364;16.022;2022-11-09T06:05:31;28.77;;;14.77;;
7813;SDS011;3952;48.364;16.022;2022-11-09T06:08:00;26.40;;;15.37;;
7813;SDS011;3952;48.364;16.022;2022-11-09T06:10:28;25.23;;;14.40;;
7813;SDS011;3952;48.364;16.022;2022-11-09T06:12:56;25.77;;;14.70;;
7813;SDS011;3952;48.364;16.022;2022-11-09T06:15:23;34.57;;;16.33;;
7813;SDS011;3952;48.364;16.022;2022-11-09T06:17:50;24.80;;;14.87;;
7813;SDS011;3952;48.364;16.022;2022-11-09T06:20:19;20.73;;;13.63;;
7813;SDS011;3952;48.364;16.022;2022-11-09T06:22:52;21.27;;;13.67;;
7813;SDS011;3952;48.364;16.022;2022-11-09T06:25:20;29.33;;;16.73;;
7813;SDS011;3952;48.364;16.022;2022-11-09T06:27:47;23.30;;;13.77;;
7813;SDS011;3952;48.364;16.022;2022-11-09T06:30:14;23.83;;;14.07;;
7813;SDS011;3952;48.364;16.022;2022-11-09T06:32:42;25.13;;;13.83;;
7813;SDS011;3952;48.364;16.022;2022-11-09T06:35:09;22.17;;;14.17;;
7813;SDS011;3952;48.364;16.022;2022-11-09T06:37:37;23.00;;;14.07;;
7813;SDS011;3952;48.364;16.022;2022-11-09T06:40:05;25.87;;;14.47;;
7813;SDS011;3952;48.364;16.022;2022-11-09T06:42:34;23.13;;;13.73;;
7813;SDS011;3952;48.364;16.022;2022-11-09T06:45:01;23.67;;;14.23;;
7813;SDS011;3952;48.364;16.022;2022-11-09T06:47:28;24.37;;;14.87;;
7813;SDS011;3952;48.364;16.022;2022-11-09T06:49:55;27.17;;;14.93;;
7813;SDS011;3952;48.364;16.022;2022-11-09T06:52:22;23.10;;;14.13;;
7813;SDS011;3952;48.364;16.022;2022-11-09T06:54:51;25.07;;;14.90;;
7813;SDS011;3952;48.364;16.022;2022-11-09T06:57:18;27.83;;;14.67;;
7813;SDS011;3952;48.364;16.022;2022-11-09T06:59:45;25.07;;;15.10;;
7813;SDS011;3952;48.364;16.022;2022-11-09T07:02:13;29.23;;;15.20;;
7813;SDS011;3952;48.364;16.022;2022-11-09T07:04:42;24.30;;;15.00;;
7813;SDS011;3952;48.364;16.022;2022-11-09T07:07:10;24.40;;;15.20;;
7813;SDS011;3952;48.364;16.022;2022-11-09T07:09:37;25.47;;;14.60;;
7813;SDS011;3952;48.364;16.022;2022-11-09T07:12:06;22.87;;;14.27;;
7813;SDS011;3952;48.364;16.022;2022-11-09T07:14:34;22.10;;;14.60;;
7813;SDS011;3952;48.364;16.022;2022-11-09T07:17:01;22.33;;;14.63;;
7813;SDS011;3952;48.364;16.022;2022-11-09T07:19:29;27.23;;;15.20;;
7813;SDS011;3952;48.364;16.022;2022-11-09T07:21:56;32.43;;;15.20;;
7813;SDS011;3952;48.364;16.022;2022-11-09T07:24:23;25.63;;;15.13;;
7813;SDS011;3952;48.364;16.022;2022-11-09T07:26:50;27.33;;;14.40;;
7813;SDS011;3952;48.364;16.022;2022-11-09T07:29:19;26.23;;;14.93;;
7813;SDS011;3952;48.364;16.022;2022-11-09T07:31:46;24.50;;;14.50;;
7813;SDS011;3952;48.364;16.022;2022-11-09T07:34:13;28.03;;;14.97;;
7813;SDS011;3952;48.364;16.022;2022-11-09T07:36:40;23.27;;;14.73;;
7813;SDS011;3952;48.364;16.022;2022-11-09T07:39:08;23.47;;;14.57;;
7813;SDS011;3952;48.364;16.022;2022-11-09T07:41:36;27.10;;;15.17;;
7813;SDS011;3952;48.364;16.022;2022-11-09T07:44:03;28.73;;;15.50;;
7813;SDS011;3952;48.364;16.022;2022-11-09T07:46:32;24.33;;;15.43;;
7813;SDS011;3952;48.364;16.022;2022-11-09T07:48:59;27.73;;;15.27;;
7813;SDS011;3952;48.364;16.022;2022-11-09T07:51:26;28.10;;;16.27;;
7813;SDS011;3952;48.364;16.022;2022-11-09T07:53:54;25.77;;;15.60;;
7813;SDS011;3952;48.364;16.022;2022-11-09T07:56:21;25.13;;;15.40;;
7813;SDS011;3952;48.364;16.022;2022-11-09T07:58:48;23.47;;;15.03;;
7813;SDS011;3952;48.364;16.022;2022-11-09T08:01:15;24.00;;;14.30;;
7813;SDS011;3952;48.364;16.022;2022-11-09T08:03:44;26.43;;;14.70;;
7813;SDS011;3952;48.364;16.022;2022-11-09T08:06:11;28.00;;;15.37;;
7813;SDS011;3952;48.364;16.022;2022-11-09T08:08:38;30.37;;;16.33;;
7813;SDS011;3952;48.364;16.022;2022-11-09T08:11:05;30.70;;;17.83;;
7813;SDS011;3952;48.364;16.022;2022-11-09T08:13:33;30.37;;;16.33;;
7813;SDS011;3952;48.364;16.022;2022-11-09T08:16:00;29.77;;;16.80;;
7813;SDS011;3952;48.364;16.022;2022-11-09T08:18:28;30.30;;;16.50;;
7813;SDS011;3952;48.364;16.022;2022-11-09T08:20:59;34.73;;;20.27;;
7813;SDS011;3952;48.364;16.022;2022-11-09T08:23:28;25.70;;;16.60;;
7813;SDS011;3952;48.364;16.022;2022-11-09T08:25:55;54.50;;;27.40;;
7813;SDS011;3952;48.364;16.022;2022-11-09T08:28:22;41.63;;;23.30;;
7813;SDS011;3952;48.364;16.022;2022-11-09T08:30:54;36.63;;;18.90;;
7813;SDS011;3952;48.364;16.022;2022-11-09T08:33:22;31.80;;;17.53;;
7813;SDS011;3952;48.364;16.022;2022-11-09T08:35:50;27.40;;;16.93;;
7813;SDS011;3952;48.364;16.022;2022-11-09T08:38:19;37.50;;;20.00;;
7813;SDS011;3952;48.364;16.022;2022-11-09T08:40:46;35.27;;;18.17;;
7813;SDS011;3952;48.364;16.022;2022-11-09T08:43:13;31.27;;;16.70;;
7813;SDS011;3952;48.364;16.022;2022-11-09T08:45:40;32.93;;;17.57;;
7813;SDS011;3952;48.364;16.022;2022-11-09T08:48:08;33.10;;;17.73;;
7813;SDS011;3952;48.364;16.022;2022-11-09T08:50:37;30.97;;;18.03;;
7813;SDS011;3952;48.364;16.022;2022-11-09T08:53:04;40.37;;;18.43;;
7813;SDS011;3952;48.364;16.022;2022-11-09T08:55:33;35.67;;;18.37;;
7813;SDS011;3952;48.364;16.022;2022-11-09T08:58:01;31.93;;;18.03;;
7813;SDS011;3952;48.364;16.022;2022-11-09T09:00:29;37.63;;;19.23;;
7813;SDS011;3952;48.364;16.022;2022-11-09T09:02:57;34.13;;;18.50;;
7813;SDS011;3952;48.364;16.022;2022-11-09T09:05:28;33.23;;;18.53;;
7813;SDS011;3952;48.364;16.022;2022-11-09T09:07:55;32.93;;;17.67;;
7813;SDS011;3952;48.364;16.022;2022-11-09T09:10:24;34.17;;;19.33;;
7813;SDS011;3952;48.364;16.022;2022-11-09T09:12:52;36.47;;;20.10;;
7813;SDS011;3952;48.364;16.022;2022-11-09T09:15:20;40.00;;;21.73;;
7813;SDS011;3952;48.364;16.022;2022-11-09T09:17:47;42.07;;;22.50;;
7813;SDS011;3952;48.364;16.022;2022-11-09T09:20:15;45.63;;;23.90;;
7813;SDS011;3952;48.364;16.022;2022-11-09T09:22:42;50.17;;;25.33;;
7813;SDS011;3952;48.364;16.022;2022-11-09T09:25:10;48.20;;;25.97;;
7813;SDS011;3952;48.364;16.022;2022-11-09T09:27:37;53.83;;;27.20;;
7813;SDS011;3952;48.364;16.022;2022-11-09T09:30:06;46.73;;;25.93;;
7813;SDS011;3952;48.364;16.022;2022-11-09T09:32:34;50.03;;;26.40;;
7813;SDS011;3952;48.364;16.022;2022-11-09T09:35:02;51.40;;;27.03;;
7813;SDS011;3952;48.364;16.022;2022-11-09T09:37:29;53.73;;;28.07;;
7813;SDS011;3952;48.364;16.022;2022-11-09T09:39:56;51.97;;;25.97;;
7813;SDS011;3952;48.364;16.022;2022-11-09T09:42:24;47.10;;;25.03;;
7813;SDS011;3952;48.364;16.022;2022-11-09T09:44:57;47.97;;;25.60;;
7813;SDS011;3952;48.364;16.022;2022-11-09T09:47:32;50.17;;;26.20;;
7813;SDS011;3952;48.364;16.022;2022-11-09T09:50:09;49.87;;;26.50;;
7813;SDS011;3952;48.364;16.022;2022-11-09T09:52:39;54.20;;;25.83;;
7813;SDS011;3952;48.364;16.022;2022-11-09T09:55:13;51.57;;;25.60;;
7813;SDS011;3952;48.364;16.022;2022-11-09T09:57:45;43.03;;;23.37;;
7813;SDS011;3952;48.364;16.022;2022-11-09T10:00:17;46.03;;;25.23;;
7813;SDS011;3952;48.364;16.022;2022-11-09T10:02:49;47.80;;;24.60;;
7813;SDS011;3952;48.364;16.022;2022-11-09T10:05:17;47.40;;;24.47;;
7813;SDS011;3952;48.364;16.022;2022-11-09T10:07:48;46.27;;;24.47;;
7813;SDS011;3952;48.364;16.022;2022-11-09T10:10:30;46.50;;;24.17;;
7813;SDS011;3952;48.364;16.022;2022-11-09T10:13:34;45.87;;;23.87;;
7813;SDS011;3952;48.364;16.022;2022-11-09T10:16:22;42.60;;;23.20;;
7813;SDS011;3952;48.364;16.022;2022-11-09T10:21:53;38.43;;;20.90;;
7813;SDS011;3952;48.364;16.022;2022-11-09T10:24:32;35.93;;;22.27;;
7813;SDS011;3952;48.364;16.022;2022-11-09T10:27:09;39.30;;;22.07;;
7813;SDS011;3952;48.364;16.022;2022-11-09T10:29:47;38.83;;;21.10;;
7813;SDS011;3952;48.364;16.022;2022-11-09T10:32:16;33.30;;;19.90;;
7813;SDS011;3952;48.364;16.022;2022-11-09T10:34:48;32.20;;;19.67;;
7813;SDS011;3952;48.364;16.022;2022-11-09T10:37:20;40.57;;;21.07;;
7813;SDS011;3952;48.364;16.022;2022-11-09T10:39:53;29.90;;;18.30;;
7813;SDS011;3952;48.364;16.022;2022-11-09T10:42:24;32.97;;;19.00;;
7813;SDS011;3952;48.364;16.022;2022-11-09T10:44:51;36.10;;;19.77;;
7813;SDS011;3952;48.364;16.022;2022-11-09T10:47:18;32.00;;;19.33;;
7813;SDS011;3952;48.364;16.022;2022-11-09T10:49:55;30.00;;;18.87;;
7813;SDS011;3952;48.364;16.022;2022-11-09T10:52:32;34.90;;;19.97;;
7813;SDS011;3952;48.364;16.022;2022-11-09T10:55:14;38.03;;;19.93;;
7813;SDS011;3952;48.364;16.022;2022-11-09T10:57:55;29.80;;;19.23;;
7813;SDS011;3952;48.364;16.022;2022-11-09T11:00:25;34.47;;;20.50;;
7813;SDS011;3952;48.364;16.022;2022-11-09T11:02:53;33.57;;;19.43;;
7813;SDS011;3952;48.364;16.022;2022-11-09T11:05:32;36.40;;;19.23;;
7813;SDS011;3952;48.364;16.022;2022-11-09T11:11:05;32.40;;;19.90;;
7813;SDS011;3952;48.364;16.022;2022-11-09T11:14:02;42.57;;;20.77;;
7813;SDS011;3952;48.364;16.022;2022-11-09T11:16:43;37.47;;;21.23;;
7813;SDS011;3952;48.364;16.022;2022-11-09T11:19:24;32.77;;;19.30;;
7813;SDS011;3952;48.364;16.022;2022-11-09T11:22:11;33.47;;;20.00;;
7813;SDS011;3952;48.364;16.022;2022-11-09T11:24:49;33.63;;;19.70;;
7813;SDS011;3952;48.364;16.022;2022-11-09T11:27:21;33.67;;;19.90;;
7813;SDS011;3952;48.364;16.022;2022-11-09T11:29:54;37.87;;;20.17;;
7813;SDS011;3952;48.364;16.022;2022-11-09T11:32:26;37.70;;;20.93;;
7813;SDS011;3952;48.364;16.022;2022-11-09T11:34:53;29.67;;;19.37;;
7813;SDS011;3952;48.364;16.022;2022-11-09T11:37:25;36.60;;;20.23;;
7813;SDS011;3952;48.364;16.022;2022-11-09T11:40:07;36.03;;;20.17;;
7813;SDS011;3952;48.364;16.022;2022-11-09T11:42:59;30.73;;;18.50;;
7813;SDS011;3952;48.364;16.022;2022-11-09T11:45:39;38.80;;;19.33;;
7813;SDS011;3952;48.364;16.022;2022-11-09T11:51:01;36.33;;;19.23;;
7813;SDS011;3952;48.364;16.022;2022-11-09T11:53:46;36.97;;;19.40;;
7813;SDS011;3952;48.364;16.022;2022-11-09T11:56:31;36.63;;;19.27;;
7813;SDS011;3952;48.364;16.022;2022-11-09T11:59:08;39.17;;;20.17;;
7813;SDS011;3952;48.364;16.022;2022-11-09T12:02:03;36.90;;;18.53;;
7813;SDS011;3952;48.364;16.022;2022-11-09T12:04:57;33.93;;;19.90;;
7813;SDS011;3952;48.364;16.022;2022-11-09T12:07:46;40.07;;;19.77;;
7813;SDS011;3952;48.364;16.022;2022-11-09T12:10:24;39.67;;;20.43;;
7813;SDS011;3952;48.364;16.022;2022-11-09T12:13:04;39.33;;;19.70;;
7813;SDS011;3952;48.364;16.022;2022-11-09T12:15:42;36.17;;;20.10;;
7813;SDS011;3952;48.364;16.022;2022-11-09T12:18:21;43.43;;;18.93;;
7813;SDS011;3952;48.364;16.022;2022-11-09T12:21:04;41.50;;;20.67;;
7813;SDS011;3952;48.364;16.022;2022-11-09T12:23:41;34.83;;;19.37;;
7813;SDS011;3952;48.364;16.022;2022-11-09T12:26:24;39.07;;;20.87;;
7813;SDS011;3952;48.364;16.022;2022-11-09T12:29:06;41.80;;;20.53;;
7813;SDS011;3952;48.364;16.022;2022-11-09T12:31:46;40.50;;;20.43;;
7813;SDS011;3952;48.364;16.022;2022-11-09T12:34:23;42.83;;;22.30;;
7813;SDS011;3952;48.364;16.022;2022-11-09T12:36:53;33.77;;;19.80;;
7813;SDS011;3952;48.364;16.022;2022-11-09T12:39:26;41.77;;;20.60;;
7813;SDS011;3952;48.364;16.022;2022-11-09T12:41:59;38.27;;;20.37;;
7813;SDS011;3952;48.364;16.022;2022-11-09T12:44:31;43.20;;;20.90;;
7813;SDS011;3952;48.364;16.022;2022-11-09T12:47:02;40.20;;;21.03;;
7813;SDS011;3952;48.364;16.022;2022-11-09T12:49:35;39.50;;;21.13;;
7813;SDS011;3952;48.364;16.022;2022-11-09T12:52:04;36.53;;;20.13;;
7813;SDS011;3952;48.364;16.022;2022-11-09T12:54:33;38.10;;;20.47;;
7813;SDS011;3952;48.364;16.022;2022-11-09T12:57:04;41.87;;;20.23;;
7813;SDS011;3952;48.364;16.022;2022-11-09T12:59:35;37.77;;;20.67;;
7813;SDS011;3952;48.364;16.022;2022-11-09T13:02:17;46.00;;;22.00;;
7813;SDS011;3952;48.364;16.022;2022-11-09T13:04:59;39.73;;;20.27;;
7813;SDS011;3952;48.364;16.022;2022-11-09T13:10:23;43.37;;;21.60;;
7813;SDS011;3952;48.364;16.022;2022-11-09T13:13:17;40.50;;;20.90;;
7813;SDS011;3952;48.364;16.022;2022-11-09T13:16:03;36.00;;;19.83;;
7813;SDS011;3952;48.364;16.022;2022-11-09T13:18:45;38.43;;;20.43;;
7813;SDS011;3952;48.364;16.022;2022-11-09T13:21:30;38.10;;;21.20;;
7813;SDS011;3952;48.364;16.022;2022-11-09T13:33:15;38.90;;;21.13;;
7813;SDS011;3952;48.364;16.022;2022-11-09T13:36:12;36.70;;;20.87;;
7813;SDS011;3952;48.364;16.022;2022-11-09T13:38:45;43.43;;;20.40;;
7813;SDS011;3952;48.364;16.022;2022-11-09T13:41:41;38.30;;;19.83;;
7813;SDS011;3952;48.364;16.022;2022-11-09T13:44:16;37.50;;;20.07;;
7813;SDS011;3952;48.364;16.022;2022-11-09T13:46:49;35.37;;;19.53;;
7813;SDS011;3952;48.364;16.022;2022-11-09T13:55:24;37.27;;;20.47;;
7813;SDS011;3952;48.364;16.022;2022-11-09T13:57:57;42.90;;;21.73;;
7813;SDS011;3952;48.364;16.022;2022-11-09T14:00:27;43.00;;;21.87;;
7813;SDS011;3952;48.364;16.022;2022-11-09T14:02:58;42.50;;;21.97;;
7813;SDS011;3952;48.364;16.022;2022-11-09T14:05:29;41.53;;;22.03;;
7813;SDS011;3952;48.364;16.022;2022-11-09T14:07:59;40.20;;;21.33;;
7813;SDS011;3952;48.364;16.022;2022-11-09T14:10:37;43.87;;;21.73;;
7813;SDS011;3952;48.364;16.022;2022-11-09T14:13:24;36.03;;;20.70;;
7813;SDS011;3952;48.364;16.022;2022-11-09T14:16:12;35.33;;;20.37;;
7813;SDS011;3952;48.364;16.022;2022-11-09T14:18:55;40.03;;;21.07;;
7813;SDS011;3952;48.364;16.022;2022-11-09T14:21:39;40.40;;;20.80;;
7813;SDS011;3952;48.364;16.022;2022-11-09T14:24:14;38.57;;;19.63;;
7813;SDS011;3952;48.364;16.022;2022-11-09T14:29:48;34.70;;;19.13;;
7813;SDS011;3952;48.364;16.022;2022-11-09T14:32:21;33.07;;;18.63;;
7813;SDS011;3952;48.364;16.022;2022-11-09T14:35:12;36.83;;;19.73;;
7813;SDS011;3952;48.364;16.022;2022-11-09T14:37:48;28.23;;;17.27;;
7813;SDS011;3952;48.364;16.022;2022-11-09T14:40:17;31.00;;;17.93;;
7813;SDS011;3952;48.364;16.022;2022-11-09T14:42:47;30.33;;;18.07;;
7813;SDS011;3952;48.364;16.022;2022-11-09T14:45:17;30.93;;;18.57;;
7813;SDS011;3952;48.364;16.022;2022-11-09T14:47:46;29.13;;;17.77;;
7813;SDS011;3952;48.364;16.022;2022-11-09T14:50:18;30.50;;;18.63;;
7813;SDS011;3952;48.364;16.022;2022-11-09T14:52:48;30.23;;;17.83;;
7813;SDS011;3952;48.364;16.022;2022-11-09T14:55:17;28.53;;;18.17;;
7813;SDS011;3952;48.364;16.022;2022-11-09T14:57:47;28.67;;;18.10;;
7813;SDS011;3952;48.364;16.022;2022-11-09T15:00:22;29.00;;;18.07;;
7813;SDS011;3952;48.364;16.022;2022-11-09T15:02:53;29.87;;;17.57;;
7813;SDS011;3952;48.364;16.022;2022-11-09T15:05:30;24.03;;;17.27;;
7813;SDS011;3952;48.364;16.022;2022-11-09T15:08:00;26.23;;;17.10;;
7813;SDS011;3952;48.364;16.022;2022-11-09T15:10:28;30.63;;;18.50;;
7813;SDS011;3952;48.364;16.022;2022-11-09T15:12:58;25.07;;;16.47;;
7813;SDS011;3952;48.364;16.022;2022-11-09T15:15:28;27.07;;;16.30;;
7813;SDS011;3952;48.364;16.022;2022-11-09T15:17:57;24.27;;;16.27;;
7813;SDS011;3952;48.364;16.022;2022-11-09T15:20:26;26.80;;;17.03;;
7813;SDS011;3952;48.364;16.022;2022-11-09T15:22:59;30.03;;;17.57;;
7813;SDS011;3952;48.364;16.022;2022-11-09T15:25:29;25.63;;;16.60;;